Back to Top

Language: 

My Weather Underground Personal Weather Station Historical Data with Graphs...

Delerius Weather Station Historical Data
Daily Summary for March 12, 2017 Units:  Both    English   Metric
« Previous Day
Next Day »
Daily Weekly Monthly Yearly Custom
  High: Low: Average:
Temperature: 60.5 °F /  15.8 °C 44.1 °F /  6.7 °C 52.1 °F /  11.2 °C
Dew Point: 51.2 °F /  10.7 °C 40.5 °F /  4.7 °C 47.4 °F /  8.6 °C
Humidity: 94 % 57 % 85 %
Wind Speed: 11.0 mph /  17.7 km/h - 4.8 mph /  7.7 km/h
Wind Gust: 16.0 mph /  25.7 km/h - -
Wind:- - West
Pressure: 30.18 in /  1021.9 hPa 29.84 in /  1010.4 hPa -
Precipitation: 0.00 in /  0 mm    
Historical Graphs
 
 
Tabular Data for March 12, 2017
Time Temperature Dew Point Pressure Wind Wind Speed Wind Gust Humidity Rainfall Rate (Hourly) solar Conditions
00:05 53.0 °F /  11.7 °C 51.0 °F /  10.6 °C 29.89 in /  1012.1 hPa SSW 2.0 mph /  3.2 km/h 8.0 mph /  12.9 km/h 93 % 0.00 in /  0 mm 0 W/m2
00:15 53.0 °F /  11.7 °C 51.0 °F /  10.6 °C 29.89 in /  1012.1 hPa SSE 4.0 mph /  6.4 km/h 5.0 mph /  8 km/h 93 % 0.00 in /  0 mm 0 W/m2
00:20 53.0 °F /  11.7 °C 51.0 °F /  10.6 °C 29.89 in /  1012.1 hPa SSE 4.0 mph /  6.4 km/h 4.0 mph /  6.4 km/h 93 % 0.00 in /  0 mm 0 W/m2
00:25 53.0 °F /  11.7 °C 51.0 °F /  10.6 °C 29.89 in /  1012.1 hPa SSE 5.0 mph /  8 km/h 7.0 mph /  11.3 km/h 93 % 0.00 in /  0 mm 0 W/m2
00:30 52.9 °F /  11.6 °C 51.2 °F /  10.7 °C 29.88 in /  1011.7 hPa South 4.0 mph /  6.4 km/h 4.0 mph /  6.4 km/h 94 % 0.00 in /  0 mm 0 W/m2
00:40 52.8 °F /  11.6 °C 51.1 °F /  10.6 °C 29.88 in /  1011.7 hPa South 3.0 mph /  4.8 km/h 3.0 mph /  4.8 km/h 94 % 0.00 in /  0 mm 0 W/m2
00:45 52.8 °F /  11.6 °C 51.1 °F /  10.6 °C 29.88 in /  1011.7 hPa South 3.0 mph /  4.8 km/h 3.0 mph /  4.8 km/h 94 % 0.00 in /  0 mm 0 W/m2
00:55 52.8 °F /  11.6 °C 50.8 °F /  10.4 °C 29.88 in /  1011.7 hPa SSW 3.0 mph /  4.8 km/h 4.0 mph /  6.4 km/h 93 % 0.00 in /  0 mm 0 W/m2
01:00 52.7 °F /  11.5 °C 51.0 °F /  10.6 °C 29.88 in /  1011.7 hPa SSW 4.0 mph /  6.4 km/h 4.0 mph /  6.4 km/h 94 % 0.00 in /  0 mm 0 W/m2
01:05 52.7 °F /  11.5 °C 50.7 °F /  10.4 °C 29.88 in /  1011.7 hPa South 4.0 mph /  6.4 km/h 8.0 mph /  12.9 km/h 93 % 0.00 in /  0 mm 0 W/m2
01:15 52.7 °F /  11.5 °C 50.7 °F /  10.4 °C 29.88 in /  1011.7 hPa SSE 4.0 mph /  6.4 km/h 7.0 mph /  11.3 km/h 93 % 0.00 in /  0 mm 0 W/m2
01:20 52.7 °F /  11.5 °C 50.7 °F /  10.4 °C 29.88 in /  1011.7 hPa South 4.0 mph /  6.4 km/h 4.0 mph /  6.4 km/h 93 % 0.00 in /  0 mm 0 W/m2
01:25 52.7 °F /  11.5 °C 50.7 °F /  10.4 °C 29.88 in /  1011.7 hPa SE 4.0 mph /  6.4 km/h 8.0 mph /  12.9 km/h 93 % 0.00 in /  0 mm 0 W/m2
01:30 52.7 °F /  11.5 °C 50.7 °F /  10.4 °C 29.88 in /  1011.7 hPa SE 3.0 mph /  4.8 km/h 3.0 mph /  4.8 km/h 93 % 0.00 in /  0 mm 0 W/m2
01:35 52.6 °F /  11.4 °C 50.6 °F /  10.3 °C 29.87 in /  1011.4 hPa SE 2.0 mph /  3.2 km/h 8.0 mph /  12.9 km/h 93 % 0.00 in /  0 mm 0 W/m2
01:40 52.6 °F /  11.4 °C 50.6 °F /  10.3 °C 29.87 in /  1011.4 hPa SE 1.0 mph /  1.6 km/h 1.0 mph /  1.6 km/h 93 % 0.00 in /  0 mm 0 W/m2
01:50 52.6 °F /  11.4 °C 50.6 °F /  10.3 °C 29.87 in /  1011.4 hPa South 1.0 mph /  1.6 km/h 1.0 mph /  1.6 km/h 93 % 0.00 in /  0 mm 0 W/m2
01:55 52.5 °F /  11.4 °C 50.5 °F /  10.3 °C 29.87 in /  1011.4 hPa Calm   8.0 mph /  12.9 km/h 93 % 0.00 in /  0 mm 0 W/m2
02:00 52.4 °F /  11.3 °C 50.4 °F /  10.2 °C 29.87 in /  1011.4 hPa Calm   8.0 mph /  12.9 km/h 93 % 0.00 in /  0 mm 0 W/m2
02:05 52.4 °F /  11.3 °C 50.4 °F /  10.2 °C 29.86 in /  1011.1 hPa South 1.0 mph /  1.6 km/h 8.0 mph /  12.9 km/h 93 % 0.00 in /  0 mm 0 W/m2
02:10 52.4 °F /  11.3 °C 50.4 °F /  10.2 °C 29.86 in /  1011.1 hPa South 2.0 mph /  3.2 km/h 8.0 mph /  12.9 km/h 93 % 0.00 in /  0 mm 0 W/m2
02:20 52.1 °F /  11.2 °C 50.1 °F /  10.1 °C 29.86 in /  1011.1 hPa South 3.0 mph /  4.8 km/h 8.0 mph /  12.9 km/h 93 % 0.00 in /  0 mm 0 W/m2
02:30 52.0 °F /  11.1 °C 50.0 °F /  10 °C 29.86 in /  1011.1 hPa South 4.0 mph /  6.4 km/h 4.0 mph /  6.4 km/h 93 % 0.00 in /  0 mm 0 W/m2
02:35 52.1 °F /  11.2 °C 50.1 °F /  10.1 °C 29.86 in /  1011.1 hPa South 4.0 mph /  6.4 km/h 8.0 mph /  12.9 km/h 93 % 0.00 in /  0 mm 0 W/m2
02:40 52.1 °F /  11.2 °C 50.1 °F /  10.1 °C 29.85 in /  1010.7 hPa South 3.0 mph /  4.8 km/h 8.0 mph /  12.9 km/h 93 % 0.00 in /  0 mm 0 W/m2
02:45 52.0 °F /  11.1 °C 50.0 °F /  10 °C 29.85 in /  1010.7 hPa SSW 4.0 mph /  6.4 km/h 8.0 mph /  12.9 km/h 93 % 0.00 in /  0 mm 0 W/m2
02:50 51.9 °F /  11.1 °C 49.9 °F /  9.9 °C 29.85 in /  1010.7 hPa South 3.0 mph /  4.8 km/h 3.0 mph /  4.8 km/h 93 % 0.00 in /  0 mm 0 W/m2
02:55 51.9 °F /  11.1 °C 49.9 °F /  9.9 °C 29.85 in /  1010.7 hPa South 3.0 mph /  4.8 km/h 4.0 mph /  6.4 km/h 93 % 0.00 in /  0 mm 0 W/m2
03:00 51.8 °F /  11 °C 49.8 °F /  9.9 °C 29.85 in /  1010.7 hPa SSW 4.0 mph /  6.4 km/h 8.0 mph /  12.9 km/h 93 % 0.00 in /  0 mm 0 W/m2
03:05 51.8 °F /  11 °C 49.8 °F /  9.9 °C 29.85 in /  1010.7 hPa SSE 4.0 mph /  6.4 km/h 8.0 mph /  12.9 km/h 93 % 0.00 in /  0 mm 0 W/m2
03:10 51.8 °F /  11 °C 49.8 °F /  9.9 °C 29.85 in /  1010.7 hPa SSW 5.0 mph /  8 km/h 8.0 mph /  12.9 km/h 93 % 0.00 in /  0 mm 0 W/m2
03:20 51.8 °F /  11 °C 49.8 °F /  9.9 °C 29.85 in /  1010.7 hPa South 6.0 mph /  9.7 km/h 6.0 mph /  9.7 km/h 93 % 0.00 in /  0 mm 0 W/m2
03:30 51.9 °F /  11.1 °C 49.9 °F /  9.9 °C 29.85 in /  1010.7 hPa South 5.0 mph /  8 km/h 8.0 mph /  12.9 km/h 93 % 0.00 in /  0 mm 0 W/m2
03:35 51.9 °F /  11.1 °C 49.9 °F /  9.9 °C 29.85 in /  1010.7 hPa SSW 4.0 mph /  6.4 km/h 8.0 mph /  12.9 km/h 93 % 0.00 in /  0 mm 0 W/m2
03:40 51.9 °F /  11.1 °C 49.9 °F /  9.9 °C 29.85 in /  1010.7 hPa SSW 4.0 mph /  6.4 km/h 8.0 mph /  12.9 km/h 93 % 0.00 in /  0 mm 0 W/m2
03:45 51.9 °F /  11.1 °C 49.9 °F /  9.9 °C 29.85 in /  1010.7 hPa SSW 4.0 mph /  6.4 km/h 8.0 mph /  12.9 km/h 93 % 0.00 in /  0 mm 0 W/m2
03:50 51.9 °F /  11.1 °C 49.9 °F /  9.9 °C 29.85 in /  1010.7 hPa SSW 3.0 mph /  4.8 km/h 3.0 mph /  4.8 km/h 93 % 0.00 in /  0 mm 0 W/m2
03:55 51.9 °F /  11.1 °C 49.9 °F /  9.9 °C 29.85 in /  1010.7 hPa SSW 2.0 mph /  3.2 km/h 8.0 mph /  12.9 km/h 93 % 0.00 in /  0 mm 0 W/m2
04:05 51.9 °F /  11.1 °C 49.9 °F /  9.9 °C 29.85 in /  1010.7 hPa SSW 1.0 mph /  1.6 km/h 8.0 mph /  12.9 km/h 93 % 0.00 in /  0 mm 0 W/m2
04:10 51.9 °F /  11.1 °C 49.9 °F /  9.9 °C 29.85 in /  1010.7 hPa SSW 1.0 mph /  1.6 km/h 1.0 mph /  1.6 km/h 93 % 0.00 in /  0 mm 0 W/m2
04:15 51.9 °F /  11.1 °C 49.9 °F /  9.9 °C 29.85 in /  1010.7 hPa SSW 1.0 mph /  1.6 km/h 2.0 mph /  3.2 km/h 93 % 0.00 in /  0 mm 0 W/m2
04:25 52.0 °F /  11.1 °C 50.0 °F /  10 °C 29.85 in /  1010.7 hPa West 2.0 mph /  3.2 km/h 8.0 mph /  12.9 km/h 93 % 0.00 in /  0 mm 0 W/m2
04:30 52.0 °F /  11.1 °C 50.0 °F /  10 °C 29.85 in /  1010.7 hPa West 3.0 mph /  4.8 km/h 8.0 mph /  12.9 km/h 93 % 0.00 in /  0 mm 0 W/m2
04:40 52.1 °F /  11.2 °C 50.1 °F /  10.1 °C 29.84 in /  1010.4 hPa WSW 5.0 mph /  8 km/h 5.0 mph /  8 km/h 93 % 0.00 in /  0 mm 0 W/m2
04:45 52.0 °F /  11.1 °C 50.0 °F /  10 °C 29.84 in /  1010.4 hPa WSW 4.0 mph /  6.4 km/h 8.0 mph /  12.9 km/h 93 % 0.00 in /  0 mm 0 W/m2
04:50 52.0 °F /  11.1 °C 50.0 °F /  10 °C 29.84 in /  1010.4 hPa WSW 2.0 mph /  3.2 km/h 2.0 mph /  3.2 km/h 93 % 0.00 in /  0 mm 0 W/m2
04:55 51.9 °F /  11.1 °C 49.9 °F /  9.9 °C 29.84 in /  1010.4 hPa Calm   8.0 mph /  12.9 km/h 93 % 0.00 in /  0 mm 0 W/m2
05:00 51.8 °F /  11 °C 49.8 °F /  9.9 °C 29.84 in /  1010.4 hPa Calm   8.0 mph /  12.9 km/h 93 % 0.00 in /  0 mm 0 W/m2
05:10 51.7 °F /  10.9 °C 49.7 °F /  9.8 °C 29.84 in /  1010.4 hPa Calm   8.0 mph /  12.9 km/h 93 % 0.00 in /  0 mm 0 W/m2
05:15 51.7 °F /  10.9 °C 49.7 °F /  9.8 °C 29.84 in /  1010.4 hPa Calm   8.0 mph /  12.9 km/h 93 % 0.00 in /  0 mm 0 W/m2
05:20 51.6 °F /  10.9 °C 49.6 °F /  9.8 °C 29.84 in /  1010.4 hPa Calm   8.0 mph /  12.9 km/h 93 % 0.00 in /  0 mm 0 W/m2
05:25 51.5 °F /  10.8 °C 49.5 °F /  9.7 °C 29.84 in /  1010.4 hPa Calm   8.0 mph /  12.9 km/h 93 % 0.00 in /  0 mm 0 W/m2
05:30 51.5 °F /  10.8 °C 49.5 °F /  9.7 °C 29.84 in /  1010.4 hPa Calm   8.0 mph /  12.9 km/h 93 % 0.00 in /  0 mm 0 W/m2
05:35 51.4 °F /  10.8 °C 49.4 °F /  9.7 °C 29.84 in /  1010.4 hPa Calm   8.0 mph /  12.9 km/h 93 % 0.00 in /  0 mm 0 W/m2
05:45 51.3 °F /  10.7 °C 49.6 °F /  9.8 °C 29.84 in /  1010.4 hPa Calm   8.0 mph /  12.9 km/h 94 % 0.00 in /  0 mm 0 W/m2
05:50 51.3 °F /  10.7 °C 49.6 °F /  9.8 °C 29.84 in /  1010.4 hPa Calm   8.0 mph /  12.9 km/h 94 % 0.00 in /  0 mm 0 W/m2
05:55 51.3 °F /  10.7 °C 49.6 °F /  9.8 °C 29.84 in /  1010.4 hPa WSW 1.0 mph /  1.6 km/h 8.0 mph /  12.9 km/h 94 % 0.00 in /  0 mm 0 W/m2
06:05 51.1 °F /  10.6 °C 49.4 °F /  9.7 °C 29.84 in /  1010.4 hPa WSW 1.0 mph /  1.6 km/h 8.0 mph /  12.9 km/h 94 % 0.00 in /  0 mm 0 W/m2
06:10 51.1 °F /  10.6 °C 49.4 °F /  9.7 °C 29.84 in /  1010.4 hPa WSW 1.0 mph /  1.6 km/h 1.0 mph /  1.6 km/h 94 % 0.00 in /  0 mm 0 W/m2
06:20 50.9 °F /  10.5 °C 49.2 °F /  9.6 °C 29.85 in /  1010.7 hPa Calm   8.0 mph /  12.9 km/h 94 % 0.00 in /  0 mm 0 W/m2
06:25 50.8 °F /  10.4 °C 48.8 °F /  9.3 °C 29.85 in /  1010.7 hPa Calm   8.0 mph /  12.9 km/h 93 % 0.00 in /  0 mm 0 W/m2
06:30 50.7 °F /  10.4 °C 48.7 °F /  9.3 °C 29.85 in /  1010.7 hPa Calm   8.0 mph /  12.9 km/h 93 % 0.00 in /  0 mm 0 W/m2
06:35 50.6 °F /  10.3 °C 48.9 °F /  9.4 °C 29.85 in /  1010.7 hPa Calm   8.0 mph /  12.9 km/h 94 % 0.00 in /  0 mm 0 W/m2
06:40 50.6 °F /  10.3 °C 48.9 °F /  9.4 °C 29.86 in /  1011.1 hPa Calm   8.0 mph /  12.9 km/h 94 % 0.00 in /  0 mm 0 W/m2
06:45 50.6 °F /  10.3 °C 48.9 °F /  9.4 °C 29.86 in /  1011.1 hPa Calm   8.0 mph /  12.9 km/h 94 % 0.00 in /  0 mm 0 W/m2
06:55 50.7 °F /  10.4 °C 49.0 °F /  9.4 °C 29.86 in /  1011.1 hPa Calm   8.0 mph /  12.9 km/h 94 % 0.00 in /  0 mm 0 W/m2
07:05 50.7 °F /  10.4 °C 49.0 °F /  9.4 °C 29.86 in /  1011.1 hPa Calm   8.0 mph /  12.9 km/h 94 % 0.00 in /  0 mm 11 W/m2
07:10 50.7 °F /  10.4 °C 49.0 °F /  9.4 °C 29.86 in /  1011.1 hPa Calm   8.0 mph /  12.9 km/h 94 % 0.00 in /  0 mm 7 W/m2
07:15 50.7 °F /  10.4 °C 49.0 °F /  9.4 °C 29.86 in /  1011.1 hPa WSW 1.0 mph /  1.6 km/h 8.0 mph /  12.9 km/h 94 % 0.00 in /  0 mm 7 W/m2
07:20 50.7 °F /  10.4 °C 49.0 °F /  9.4 °C 29.87 in /  1011.4 hPa WSW 2.0 mph /  3.2 km/h 2.0 mph /  3.2 km/h 94 % 0.00 in /  0 mm 7 W/m2
07:25 50.7 °F /  10.4 °C 49.0 °F /  9.4 °C 29.86 in /  1011.1 hPa West 1.0 mph /  1.6 km/h 8.0 mph /  12.9 km/h 94 % 0.00 in /  0 mm 12 W/m2
07:30 50.7 °F /  10.4 °C 49.0 °F /  9.4 °C 29.87 in /  1011.4 hPa Calm   8.0 mph /  12.9 km/h 94 % 0.00 in /  0 mm 12 W/m2
07:35 50.7 °F /  10.4 °C 49.0 °F /  9.4 °C 29.87 in /  1011.4 hPa West 1.0 mph /  1.6 km/h 8.0 mph /  12.9 km/h 94 % 0.00 in /  0 mm 16 W/m2
07:40 50.7 °F /  10.4 °C 49.0 °F /  9.4 °C 29.87 in /  1011.4 hPa West 1.0 mph /  1.6 km/h 8.0 mph /  12.9 km/h 94 % 0.00 in /  0 mm 30 W/m2
07:45 50.9 °F /  10.5 °C 49.2 °F /  9.6 °C 29.87 in /  1011.4 hPa West 2.0 mph /  3.2 km/h 8.0 mph /  12.9 km/h 94 % 0.00 in /  0 mm 35 W/m2
07:50 50.9 °F /  10.5 °C 49.2 °F /  9.6 °C 29.87 in /  1011.4 hPa West 3.0 mph /  4.8 km/h 3.0 mph /  4.8 km/h 94 % 0.00 in /  0 mm 44 W/m2
08:00 51.1 °F /  10.6 °C 49.4 °F /  9.7 °C 29.87 in /  1011.4 hPa WSW 4.0 mph /  6.4 km/h 4.0 mph /  6.4 km/h 94 % 0.00 in /  0 mm 54 W/m2
08:10 51.4 °F /  10.8 °C 49.4 °F /  9.7 °C 29.88 in /  1011.7 hPa WNW 2.0 mph /  3.2 km/h 8.0 mph /  12.9 km/h 93 % 0.00 in /  0 mm 47 W/m2
08:15 51.5 °F /  10.8 °C 49.5 °F /  9.7 °C 29.88 in /  1011.7 hPa WSW 3.0 mph /  4.8 km/h 8.0 mph /  12.9 km/h 93 % 0.00 in /  0 mm 69 W/m2
08:20 51.5 °F /  10.8 °C 49.5 °F /  9.7 °C 29.88 in /  1011.7 hPa West 4.0 mph /  6.4 km/h 4.0 mph /  6.4 km/h 93 % 0.00 in /  0 mm 62 W/m2
08:25 51.6 °F /  10.9 °C 49.6 °F /  9.8 °C 29.88 in /  1011.7 hPa WNW 4.0 mph /  6.4 km/h 5.0 mph /  8 km/h 93 % 0.00 in /  0 mm 79 W/m2
08:35 51.8 °F /  11 °C 49.5 °F /  9.7 °C 29.88 in /  1011.7 hPa WNW 1.0 mph /  1.6 km/h 8.0 mph /  12.9 km/h 92 % 0.00 in /  0 mm 69 W/m2
08:40 51.9 °F /  11.1 °C 49.6 °F /  9.8 °C 29.88 in /  1011.7 hPa NNW 1.0 mph /  1.6 km/h 8.0 mph /  12.9 km/h 92 % 0.00 in /  0 mm 65 W/m2
08:45 51.9 °F /  11.1 °C 49.4 °F /  9.7 °C 29.88 in /  1011.7 hPa NW 2.0 mph /  3.2 km/h 8.0 mph /  12.9 km/h 91 % 0.00 in /  0 mm 84 W/m2
08:55 52.1 °F /  11.2 °C 49.6 °F /  9.8 °C 29.88 in /  1011.7 hPa North 4.0 mph /  6.4 km/h 8.0 mph /  12.9 km/h 91 % 0.00 in /  0 mm 188 W/m2
09:00 52.4 °F /  11.3 °C 49.8 °F /  9.9 °C 29.88 in /  1011.7 hPa NW 3.0 mph /  4.8 km/h 8.0 mph /  12.9 km/h 91 % 0.00 in /  0 mm 130 W/m2
09:05 52.5 °F /  11.4 °C 49.7 °F /  9.8 °C 29.88 in /  1011.7 hPa NW 4.0 mph /  6.4 km/h 8.0 mph /  12.9 km/h 90 % 0.00 in /  0 mm 142 W/m2
09:10 52.6 °F /  11.4 °C 49.4 °F /  9.7 °C 29.88 in /  1011.7 hPa NW 4.0 mph /  6.4 km/h 8.0 mph /  12.9 km/h 89 % 0.00 in /  0 mm 151 W/m2
09:20 52.8 °F /  11.6 °C 49.0 °F /  9.4 °C 29.88 in /  1011.7 hPa NW 5.0 mph /  8 km/h 5.0 mph /  8 km/h 87 % 0.00 in /  0 mm 171 W/m2
09:25 53.0 °F /  11.7 °C 49.2 °F /  9.6 °C 29.88 in /  1011.7 hPa WNW 5.0 mph /  8 km/h 6.0 mph /  9.7 km/h 87 % 0.00 in /  0 mm 227 W/m2
09:30 53.2 °F /  11.8 °C 49.4 °F /  9.7 °C 29.89 in /  1012.1 hPa NNW 5.0 mph /  8 km/h 5.0 mph /  8 km/h 87 % 0.00 in /  0 mm 227 W/m2
09:35 53.4 °F /  11.9 °C 49.3 °F /  9.6 °C 29.89 in /  1012.1 hPa NW 3.0 mph /  4.8 km/h 7.0 mph /  11.3 km/h 86 % 0.00 in /  0 mm 202 W/m2
09:45 53.6 °F /  12 °C 49.2 °F /  9.6 °C 29.88 in /  1011.7 hPa NW 4.0 mph /  6.4 km/h 8.0 mph /  12.9 km/h 85 % 0.00 in /  0 mm 172 W/m2
09:50 53.7 °F /  12.1 °C 49.0 °F /  9.4 °C 29.88 in /  1011.7 hPa WNW 5.0 mph /  8 km/h 8.0 mph /  12.9 km/h 84 % 0.00 in /  0 mm 178 W/m2
09:55 53.8 °F /  12.1 °C 49.1 °F /  9.5 °C 29.89 in /  1012.1 hPa NW 4.0 mph /  6.4 km/h 8.0 mph /  12.9 km/h 84 % 0.00 in /  0 mm 206 W/m2
10:00 53.9 °F /  12.2 °C 49.2 °F /  9.6 °C 29.89 in /  1012.1 hPa West 4.0 mph /  6.4 km/h 8.0 mph /  12.9 km/h 84 % 0.00 in /  0 mm 199 W/m2
10:10 54.0 °F /  12.2 °C 49.0 °F /  9.4 °C 29.89 in /  1012.1 hPa WNW 4.0 mph /  6.4 km/h 8.0 mph /  12.9 km/h 83 % 0.00 in /  0 mm 227 W/m2
10:15 54.2 °F /  12.3 °C 49.1 °F /  9.5 °C 29.90 in /  1012.4 hPa WNW 4.0 mph /  6.4 km/h 8.0 mph /  12.9 km/h 83 % 0.00 in /  0 mm 192 W/m2
10:25 54.4 °F /  12.4 °C 49.0 °F /  9.4 °C 29.89 in /  1012.1 hPa NW 4.0 mph /  6.4 km/h 8.0 mph /  12.9 km/h 82 % 0.00 in /  0 mm 186 W/m2
10:30 54.5 °F /  12.5 °C 48.8 °F /  9.3 °C 29.89 in /  1012.1 hPa WNW 3.0 mph /  4.8 km/h 8.0 mph /  12.9 km/h 81 % 0.00 in /  0 mm 232 W/m2
10:35 54.6 °F /  12.6 °C 48.9 °F /  9.4 °C 29.89 in /  1012.1 hPa NNW 2.0 mph /  3.2 km/h 8.0 mph /  12.9 km/h 81 % 0.00 in /  0 mm 308 W/m2
10:40 54.8 °F /  12.7 °C 49.1 °F /  9.5 °C 29.89 in /  1012.1 hPa NNW 2.0 mph /  3.2 km/h 8.0 mph /  12.9 km/h 81 % 0.00 in /  0 mm 392 W/m2
10:45 55.1 °F /  12.8 °C 49.0 °F /  9.4 °C 29.89 in /  1012.1 hPa NW 3.0 mph /  4.8 km/h 8.0 mph /  12.9 km/h 80 % 0.00 in /  0 mm 299 W/m2
10:55 55.5 °F /  13.1 °C 48.8 °F /  9.3 °C 29.90 in /  1012.4 hPa NW 2.0 mph /  3.2 km/h 8.0 mph /  12.9 km/h 78 % 0.00 in /  0 mm 165 W/m2
11:00 55.6 °F /  13.1 °C 49.2 °F /  9.6 °C 29.90 in /  1012.4 hPa NW 2.0 mph /  3.2 km/h 8.0 mph /  12.9 km/h 79 % 0.00 in /  0 mm 156 W/m2
11:05 55.6 °F /  13.1 °C 48.8 °F /  9.3 °C 29.90 in /  1012.4 hPa WNW 2.0 mph /  3.2 km/h 8.0 mph /  12.9 km/h 78 % 0.00 in /  0 mm 211 W/m2
11:10 55.5 °F /  13.1 °C 48.4 °F /  9.1 °C 29.90 in /  1012.4 hPa WNW 2.0 mph /  3.2 km/h 8.0 mph /  12.9 km/h 77 % 0.00 in /  0 mm 227 W/m2
11:15 55.6 °F /  13.1 °C 48.5 °F /  9.2 °C 29.90 in /  1012.4 hPa WNW 3.0 mph /  4.8 km/h 8.0 mph /  12.9 km/h 77 % 0.00 in /  0 mm 207 W/m2
11:20 55.6 °F /  13.1 °C 48.5 °F /  9.2 °C 29.90 in /  1012.4 hPa WNW 4.0 mph /  6.4 km/h 8.0 mph /  12.9 km/h 77 % 0.00 in /  0 mm 232 W/m2
11:25 55.7 °F /  13.2 °C 48.6 °F /  9.2 °C 29.90 in /  1012.4 hPa NNW 4.0 mph /  6.4 km/h 8.0 mph /  12.9 km/h 77 % 0.00 in /  0 mm 241 W/m2
11:30 55.9 °F /  13.3 °C 48.8 °F /  9.3 °C 29.90 in /  1012.4 hPa NW 3.0 mph /  4.8 km/h 3.0 mph /  4.8 km/h 77 % 0.00 in /  0 mm 209 W/m2
11:35 56.2 °F /  13.4 °C 48.7 °F /  9.3 °C 29.91 in /  1012.8 hPa WNW 3.0 mph /  4.8 km/h 5.0 mph /  8 km/h 76 % 0.00 in /  0 mm 253 W/m2
11:45 56.5 °F /  13.6 °C 48.3 °F /  9.1 °C 29.91 in /  1012.8 hPa West 3.0 mph /  4.8 km/h 8.0 mph /  12.9 km/h 74 % 0.00 in /  0 mm 264 W/m2
11:50 56.8 °F /  13.8 °C 49.0 °F /  9.4 °C 29.91 in /  1012.8 hPa WNW 3.0 mph /  4.8 km/h 8.0 mph /  12.9 km/h 75 % 0.00 in /  0 mm 768 W/m2
12:00 57.2 °F /  14 °C 48.6 °F /  9.2 °C 29.91 in /  1012.8 hPa West 5.0 mph /  8 km/h 5.0 mph /  8 km/h 73 % 0.00 in /  0 mm 315 W/m2
12:05 57.5 °F /  14.2 °C 48.9 °F /  9.4 °C 29.91 in /  1012.8 hPa WSW 6.0 mph /  9.7 km/h 7.0 mph /  11.3 km/h 73 % 0.00 in /  0 mm 759 W/m2
12:10 58.1 °F /  14.5 °C 48.7 °F /  9.3 °C 29.91 in /  1012.8 hPa NW 5.0 mph /  8 km/h 5.0 mph /  8 km/h 71 % 0.00 in /  0 mm 417 W/m2
12:15 58.6 °F /  14.8 °C 49.6 °F /  9.8 °C 29.91 in /  1012.8 hPa WNW 5.0 mph /  8 km/h 6.0 mph /  9.7 km/h 72 % 0.00 in /  0 mm 768 W/m2
12:20 59.0 °F /  15 °C 49.2 °F /  9.6 °C 29.91 in /  1012.8 hPa WNW 4.0 mph /  6.4 km/h 8.0 mph /  12.9 km/h 70 % 0.00 in /  0 mm 244 W/m2
12:30 59.1 °F /  15.1 °C 48.9 °F /  9.4 °C 29.91 in /  1012.8 hPa West 5.0 mph /  8 km/h 8.0 mph /  12.9 km/h 69 % 0.00 in /  0 mm 258 W/m2
12:35 59.4 °F /  15.2 °C 49.2 °F /  9.6 °C 29.91 in /  1012.8 hPa WNW 5.0 mph /  8 km/h 8.0 mph /  12.9 km/h 69 % 0.00 in /  0 mm 731 W/m2
12:40 59.6 °F /  15.3 °C 49.0 °F /  9.4 °C 29.91 in /  1012.8 hPa WSW 6.0 mph /  9.7 km/h 11.0 mph /  17.7 km/h 68 % 0.00 in /  0 mm 756 W/m2
12:45 59.6 °F /  15.3 °C 47.8 °F /  8.8 °C 29.92 in /  1013.1 hPa WNW 8.0 mph /  12.9 km/h 11.0 mph /  17.7 km/h 65 % 0.00 in /  0 mm 679 W/m2
12:50 59.9 °F /  15.5 °C 47.7 °F /  8.7 °C 29.91 in /  1012.8 hPa NNW 8.0 mph /  12.9 km/h 10.0 mph /  16.1 km/h 64 % 0.00 in /  0 mm 652 W/m2
12:55 60.2 °F /  15.7 °C 48.4 °F /  9.1 °C 29.92 in /  1013.1 hPa West 8.0 mph /  12.9 km/h 10.0 mph /  16.1 km/h 65 % 0.00 in /  0 mm 652 W/m2
13:00 60.1 °F /  15.6 °C 47.9 °F /  8.8 °C 29.92 in /  1013.1 hPa NW 9.0 mph /  14.5 km/h 15.0 mph /  24.1 km/h 64 % 0.00 in /  0 mm 675 W/m2
13:05 59.9 °F /  15.5 °C 47.3 °F /  8.5 °C 29.92 in /  1013.1 hPa West 9.0 mph /  14.5 km/h 15.0 mph /  24.1 km/h 63 % 0.00 in /  0 mm 691 W/m2
13:15 60.1 °F /  15.6 °C 47.0 °F /  8.3 °C 29.92 in /  1013.1 hPa WNW 9.0 mph /  14.5 km/h 9.0 mph /  14.5 km/h 62 % 0.00 in /  0 mm 587 W/m2
13:20 60.1 °F /  15.6 °C 46.6 °F /  8.1 °C 29.92 in /  1013.1 hPa West 9.0 mph /  14.5 km/h 13.0 mph /  20.9 km/h 61 % 0.00 in /  0 mm 559 W/m2
13:25 60.1 °F /  15.6 °C 46.2 °F /  7.9 °C 29.92 in /  1013.1 hPa WNW 9.0 mph /  14.5 km/h 13.0 mph /  20.9 km/h 60 % 0.00 in /  0 mm 610 W/m2
13:30 60.0 °F /  15.6 °C 46.1 °F /  7.8 °C 29.92 in /  1013.1 hPa West 9.0 mph /  14.5 km/h 10.0 mph /  16.1 km/h 60 % 0.00 in /  0 mm 628 W/m2
13:40 60.4 °F /  15.8 °C 46.9 °F /  8.3 °C 29.92 in /  1013.1 hPa West 8.0 mph /  12.9 km/h 10.0 mph /  16.1 km/h 61 % 0.00 in /  0 mm 557 W/m2
13:45 60.3 °F /  15.7 °C 46.4 °F /  8 °C 29.92 in /  1013.1 hPa West 8.0 mph /  12.9 km/h 10.0 mph /  16.1 km/h 60 % 0.00 in /  0 mm 517 W/m2
13:55 60.4 °F /  15.8 °C 45.1 °F /  7.3 °C 29.93 in /  1013.4 hPa WNW 8.0 mph /  12.9 km/h 9.0 mph /  14.5 km/h 57 % 0.00 in /  0 mm 529 W/m2
14:00 60.5 °F /  15.8 °C 45.2 °F /  7.3 °C 29.93 in /  1013.4 hPa WSW 8.0 mph /  12.9 km/h 11.0 mph /  17.7 km/h 57 % 0.00 in /  0 mm 524 W/m2
14:05 60.4 °F /  15.8 °C 45.5 °F /  7.5 °C 29.93 in /  1013.4 hPa West 9.0 mph /  14.5 km/h 11.0 mph /  17.7 km/h 58 % 0.00 in /  0 mm 531 W/m2
14:10 60.2 °F /  15.7 °C 44.9 °F /  7.2 °C 29.93 in /  1013.4 hPa West 8.0 mph /  12.9 km/h 10.0 mph /  16.1 km/h 57 % 0.00 in /  0 mm 146 W/m2
14:15 59.9 °F /  15.5 °C 45.5 °F /  7.5 °C 29.93 in /  1013.4 hPa NW 7.0 mph /  11.3 km/h 11.0 mph /  17.7 km/h 59 % 0.00 in /  0 mm 533 W/m2
14:20 60.0 °F /  15.6 °C 46.1 °F /  7.8 °C 29.93 in /  1013.4 hPa NW 8.0 mph /  12.9 km/h 8.0 mph /  12.9 km/h 60 % 0.00 in /  0 mm 527 W/m2
14:25 60.0 °F /  15.6 °C 46.5 °F /  8.1 °C 29.94 in /  1013.8 hPa WNW 8.0 mph /  12.9 km/h 10.0 mph /  16.1 km/h 61 % 0.00 in /  0 mm 171 W/m2
14:30 59.6 °F /  15.3 °C 45.7 °F /  7.6 °C 29.94 in /  1013.8 hPa West 9.0 mph /  14.5 km/h 11.0 mph /  17.7 km/h 60 % 0.00 in /  0 mm 118 W/m2
14:35 59.1 °F /  15.1 °C 45.7 °F /  7.6 °C 29.94 in /  1013.8 hPa WNW 9.0 mph /  14.5 km/h 11.0 mph /  17.7 km/h 61 % 0.00 in /  0 mm 482 W/m2
14:45 59.1 °F /  15.1 °C 45.2 °F /  7.3 °C 29.94 in /  1013.8 hPa West 9.0 mph /  14.5 km/h 9.0 mph /  14.5 km/h 60 % 0.00 in /  0 mm 450 W/m2
14:50 59.1 °F /  15.1 °C 45.2 °F /  7.3 °C 29.94 in /  1013.8 hPa West 10.0 mph /  16.1 km/h 11.0 mph /  17.7 km/h 60 % 0.00 in /  0 mm 473 W/m2
17:35 51.8 °F /  11 °C 46.8 °F /  8.2 °C 30.01 in /  1016.1 hPa NW 5.0 mph /  8 km/h 8.0 mph /  12.9 km/h 83 % 0.00 in /  0 mm 28 W/m2
17:40 51.7 °F /  10.9 °C 46.7 °F /  8.2 °C 30.02 in /  1016.5 hPa WNW 4.0 mph /  6.4 km/h 8.0 mph /  12.9 km/h 83 % 0.00 in /  0 mm 23 W/m2
17:45 51.5 °F /  10.8 °C 46.5 °F /  8.1 °C 30.02 in /  1016.5 hPa NW 5.0 mph /  8 km/h 8.0 mph /  12.9 km/h 83 % 0.00 in /  0 mm 18 W/m2
17:50 51.4 °F /  10.8 °C 46.4 °F /  8 °C 30.02 in /  1016.5 hPa West 5.0 mph /  8 km/h 8.0 mph /  12.9 km/h 83 % 0.00 in /  0 mm 14 W/m2
17:55 51.3 °F /  10.7 °C 46.3 °F /  7.9 °C 30.03 in /  1016.8 hPa WNW 6.0 mph /  9.7 km/h 8.0 mph /  12.9 km/h 83 % 0.00 in /  0 mm 11 W/m2
18:00 51.2 °F /  10.7 °C 46.5 °F /  8.1 °C 30.03 in /  1016.8 hPa WNW 6.0 mph /  9.7 km/h 6.0 mph /  9.7 km/h 84 % 0.00 in /  0 mm 9 W/m2
18:10 51.1 °F /  10.6 °C 46.4 °F /  8 °C 30.04 in /  1017.2 hPa NW 7.0 mph /  11.3 km/h 7.0 mph /  11.3 km/h 84 % 0.00 in /  0 mm 0 W/m2
18:15 51.0 °F /  10.6 °C 46.3 °F /  7.9 °C 30.04 in /  1017.2 hPa West 7.0 mph /  11.3 km/h 8.0 mph /  12.9 km/h 84 % 0.00 in /  0 mm 0 W/m2
18:20 51.0 °F /  10.6 °C 46.3 °F /  7.9 °C 30.04 in /  1017.2 hPa WNW 8.0 mph /  12.9 km/h 12.0 mph /  19.3 km/h 84 % 0.00 in /  0 mm 0 W/m2
18:30 50.9 °F /  10.5 °C 46.2 °F /  7.9 °C 30.05 in /  1017.5 hPa NW 9.0 mph /  14.5 km/h 11.0 mph /  17.7 km/h 84 % 0.00 in /  0 mm 0 W/m2
18:35 50.7 °F /  10.4 °C 46.0 °F /  7.8 °C 30.05 in /  1017.5 hPa WNW 9.0 mph /  14.5 km/h 11.0 mph /  17.7 km/h 84 % 0.00 in /  0 mm 0 W/m2
18:45 50.3 °F /  10.2 °C 45.6 °F /  7.6 °C 30.05 in /  1017.5 hPa WNW 9.0 mph /  14.5 km/h 9.0 mph /  14.5 km/h 84 % 0.00 in /  0 mm 0 W/m2
18:50 50.1 °F /  10.1 °C 45.8 °F /  7.7 °C 30.06 in /  1017.8 hPa WNW 9.0 mph /  14.5 km/h 9.0 mph /  14.5 km/h 85 % 0.00 in /  0 mm 0 W/m2
18:55 49.9 °F /  9.9 °C 45.9 °F /  7.7 °C 30.06 in /  1017.8 hPa WNW 9.0 mph /  14.5 km/h 10.0 mph /  16.1 km/h 86 % 0.00 in /  0 mm 0 W/m2
19:00 49.7 °F /  9.8 °C 45.7 °F /  7.6 °C 30.06 in /  1017.8 hPa WNW 9.0 mph /  14.5 km/h 9.0 mph /  14.5 km/h 86 % 0.00 in /  0 mm 0 W/m2
19:05 49.5 °F /  9.7 °C 45.5 °F /  7.5 °C 30.06 in /  1017.8 hPa NW 9.0 mph /  14.5 km/h 9.0 mph /  14.5 km/h 86 % 0.00 in /  0 mm 0 W/m2
19:15 49.1 °F /  9.5 °C 45.1 °F /  7.3 °C 30.07 in /  1018.2 hPa NW 8.0 mph /  12.9 km/h 12.0 mph /  19.3 km/h 86 % 0.00 in /  0 mm 0 W/m2
19:20 48.8 °F /  9.3 °C 44.8 °F /  7.1 °C 30.07 in /  1018.2 hPa WNW 7.0 mph /  11.3 km/h 9.0 mph /  14.5 km/h 86 % 0.00 in /  0 mm 0 W/m2
19:25 48.7 °F /  9.3 °C 45.0 °F /  7.2 °C 30.07 in /  1018.2 hPa WNW 7.0 mph /  11.3 km/h 9.0 mph /  14.5 km/h 87 % 0.00 in /  0 mm 0 W/m2
19:30 48.6 °F /  9.2 °C 44.9 °F /  7.2 °C 30.08 in /  1018.5 hPa NW 8.0 mph /  12.9 km/h 8.0 mph /  12.9 km/h 87 % 0.00 in /  0 mm 0 W/m2
19:35 48.5 °F /  9.2 °C 44.8 °F /  7.1 °C 30.08 in /  1018.5 hPa NW 7.0 mph /  11.3 km/h 11.0 mph /  17.7 km/h 87 % 0.00 in /  0 mm 0 W/m2
19:40 48.5 °F /  9.2 °C 44.8 °F /  7.1 °C 30.08 in /  1018.5 hPa West 8.0 mph /  12.9 km/h 12.0 mph /  19.3 km/h 87 % 0.00 in /  0 mm 0 W/m2
19:50 48.6 °F /  9.2 °C 44.6 °F /  7 °C 30.08 in /  1018.5 hPa WNW 9.0 mph /  14.5 km/h 14.0 mph /  22.5 km/h 86 % 0.00 in /  0 mm 0 W/m2
19:55 48.6 °F /  9.2 °C 44.6 °F /  7 °C 30.08 in /  1018.5 hPa WNW 10.0 mph /  16.1 km/h 14.0 mph /  22.5 km/h 86 % 0.00 in /  0 mm 0 W/m2
20:00 48.6 °F /  9.2 °C 44.6 °F /  7 °C 30.09 in /  1018.8 hPa WNW 10.0 mph /  16.1 km/h 10.0 mph /  16.1 km/h 86 % 0.00 in /  0 mm 0 W/m2
20:05 48.5 °F /  9.2 °C 44.5 °F /  6.9 °C 30.09 in /  1018.8 hPa NW 9.0 mph /  14.5 km/h 10.0 mph /  16.1 km/h 86 % 0.00 in /  0 mm 0 W/m2
20:10 48.4 °F /  9.1 °C 44.4 °F /  6.9 °C 30.09 in /  1018.8 hPa WNW 9.0 mph /  14.5 km/h 12.0 mph /  19.3 km/h 86 % 0.00 in /  0 mm 0 W/m2
20:25 48.2 °F /  9 °C 44.2 °F /  6.8 °C 30.10 in /  1019.2 hPa WNW 10.0 mph /  16.1 km/h 11.0 mph /  17.7 km/h 86 % 0.00 in /  0 mm 0 W/m2
20:30 48.1 °F /  8.9 °C 44.1 °F /  6.7 °C 30.11 in /  1019.5 hPa West 10.0 mph /  16.1 km/h 10.0 mph /  16.1 km/h 86 % 0.00 in /  0 mm 0 W/m2
20:40 47.9 °F /  8.8 °C 43.6 °F /  6.4 °C 30.11 in /  1019.5 hPa WNW 8.0 mph /  12.9 km/h 10.0 mph /  16.1 km/h 85 % 0.00 in /  0 mm 0 W/m2
20:50 47.5 °F /  8.6 °C 43.2 °F /  6.2 °C 30.11 in /  1019.5 hPa WNW 8.0 mph /  12.9 km/h 8.0 mph /  12.9 km/h 85 % 0.00 in /  0 mm 0 W/m2
20:55 47.3 °F /  8.5 °C 43.0 °F /  6.1 °C 30.12 in /  1019.9 hPa NW 8.0 mph /  12.9 km/h 13.0 mph /  20.9 km/h 85 % 0.00 in /  0 mm 0 W/m2
21:00 47.2 °F /  8.4 °C 42.9 °F /  6.1 °C 30.12 in /  1019.9 hPa NW 10.0 mph /  16.1 km/h 10.0 mph /  16.1 km/h 85 % 0.00 in /  0 mm 0 W/m2
21:05 47.0 °F /  8.3 °C 42.7 °F /  5.9 °C 30.12 in /  1019.9 hPa WNW 10.0 mph /  16.1 km/h 16.0 mph /  25.7 km/h 85 % 0.00 in /  0 mm 0 W/m2
21:10 46.9 °F /  8.3 °C 42.6 °F /  5.9 °C 30.12 in /  1019.9 hPa WNW 10.0 mph /  16.1 km/h 10.0 mph /  16.1 km/h 85 % 0.00 in /  0 mm 0 W/m2
21:15 46.8 °F /  8.2 °C 42.5 °F /  5.8 °C 30.13 in /  1020.2 hPa NW 10.0 mph /  16.1 km/h 10.0 mph /  16.1 km/h 85 % 0.00 in /  0 mm 0 W/m2
21:25 46.6 °F /  8.1 °C 42.3 °F /  5.7 °C 30.13 in /  1020.2 hPa WNW 9.0 mph /  14.5 km/h 10.0 mph /  16.1 km/h 85 % 0.00 in /  0 mm 0 W/m2
21:35 46.5 °F /  8.1 °C 42.2 °F /  5.7 °C 30.13 in /  1020.2 hPa WNW 10.0 mph /  16.1 km/h 16.0 mph /  25.7 km/h 85 % 0.00 in /  0 mm 0 W/m2
21:40 46.4 °F /  8 °C 42.1 °F /  5.6 °C 30.13 in /  1020.2 hPa WNW 9.0 mph /  14.5 km/h 9.0 mph /  14.5 km/h 85 % 0.00 in /  0 mm 0 W/m2
21:45 46.2 °F /  7.9 °C 42.2 °F /  5.7 °C 30.14 in /  1020.5 hPa WNW 9.0 mph /  14.5 km/h 16.0 mph /  25.7 km/h 86 % 0.00 in /  0 mm 0 W/m2
21:50 46.2 °F /  7.9 °C 42.2 °F /  5.7 °C 30.14 in /  1020.5 hPa WNW 8.0 mph /  12.9 km/h 16.0 mph /  25.7 km/h 86 % 0.00 in /  0 mm 0 W/m2
21:55 46.1 °F /  7.8 °C 42.1 °F /  5.6 °C 30.14 in /  1020.5 hPa NW 8.0 mph /  12.9 km/h 16.0 mph /  25.7 km/h 86 % 0.00 in /  0 mm 0 W/m2
22:05 45.9 °F /  7.7 °C 41.9 °F /  5.5 °C 30.14 in /  1020.5 hPa WNW 8.0 mph /  12.9 km/h 16.0 mph /  25.7 km/h 86 % 0.00 in /  0 mm 0 W/m2
22:10 45.9 °F /  7.7 °C 41.9 °F /  5.5 °C 30.14 in /  1020.5 hPa WNW 9.0 mph /  14.5 km/h 9.0 mph /  14.5 km/h 86 % 0.00 in /  0 mm 0 W/m2
22:15 45.9 °F /  7.7 °C 41.9 °F /  5.5 °C 30.15 in /  1020.9 hPa NW 11.0 mph /  17.7 km/h 11.0 mph /  17.7 km/h 86 % 0.00 in /  0 mm 0 W/m2
22:20 45.8 °F /  7.7 °C 41.9 °F /  5.5 °C 30.15 in /  1020.9 hPa WNW 10.0 mph /  16.1 km/h 10.0 mph /  16.1 km/h 86 % 0.00 in /  0 mm 0 W/m2
22:25 45.8 °F /  7.7 °C 41.9 °F /  5.5 °C 30.15 in /  1020.9 hPa WNW 8.0 mph /  12.9 km/h 16.0 mph /  25.7 km/h 86 % 0.00 in /  0 mm 0 W/m2
22:30 45.7 °F /  7.6 °C 41.8 °F /  5.4 °C 30.15 in /  1020.9 hPa NW 8.0 mph /  12.9 km/h 8.0 mph /  12.9 km/h 86 % 0.00 in /  0 mm 0 W/m2
22:40 45.4 °F /  7.4 °C 41.5 °F /  5.3 °C 30.15 in /  1020.9 hPa WNW 8.0 mph /  12.9 km/h 16.0 mph /  25.7 km/h 86 % 0.00 in /  0 mm 0 W/m2
22:45 45.3 °F /  7.4 °C 41.7 °F /  5.4 °C 30.16 in /  1021.2 hPa WNW 8.0 mph /  12.9 km/h 16.0 mph /  25.7 km/h 87 % 0.00 in /  0 mm 0 W/m2
22:55 45.1 °F /  7.3 °C 41.5 °F /  5.3 °C 30.16 in /  1021.2 hPa West 7.0 mph /  11.3 km/h 16.0 mph /  25.7 km/h 87 % 0.00 in /  0 mm 0 W/m2
23:00 45.0 °F /  7.2 °C 41.4 °F /  5.2 °C 30.17 in /  1021.6 hPa NW 6.0 mph /  9.7 km/h 6.0 mph /  9.7 km/h 87 % 0.00 in /  0 mm 0 W/m2
23:05 44.9 °F /  7.2 °C 41.3 °F /  5.2 °C 30.17 in /  1021.6 hPa WNW 5.0 mph /  8 km/h 16.0 mph /  25.7 km/h 87 % 0.00 in /  0 mm 0 W/m2
23:15 44.7 °F /  7.1 °C 41.4 °F /  5.2 °C 30.17 in /  1021.6 hPa West 5.0 mph /  8 km/h 16.0 mph /  25.7 km/h 88 % 0.00 in /  0 mm 0 W/m2
23:20 44.7 °F /  7.1 °C 41.4 °F /  5.2 °C 30.17 in /  1021.6 hPa WNW 6.0 mph /  9.7 km/h 16.0 mph /  25.7 km/h 88 % 0.00 in /  0 mm 0 W/m2
23:25 44.7 °F /  7.1 °C 41.4 °F /  5.2 °C 30.17 in /  1021.6 hPa WNW 7.0 mph /  11.3 km/h 16.0 mph /  25.7 km/h 88 % 0.00 in /  0 mm 0 W/m2
23:30 44.6 °F /  7 °C 41.0 °F /  5 °C 30.17 in /  1021.6 hPa West 7.0 mph /  11.3 km/h 16.0 mph /  25.7 km/h 87 % 0.00 in /  0 mm 0 W/m2
23:35 44.5 °F /  6.9 °C 40.9 °F /  4.9 °C 30.18 in /  1021.9 hPa NW 7.0 mph /  11.3 km/h 16.0 mph /  25.7 km/h 87 % 0.00 in /  0 mm 0 W/m2
23:40 44.4 °F /  6.9 °C 40.8 °F /  4.9 °C 30.17 in /  1021.6 hPa West 8.0 mph /  12.9 km/h 16.0 mph /  25.7 km/h 87 % 0.00 in /  0 mm 0 W/m2
23:45 44.4 °F /  6.9 °C 40.8 °F /  4.9 °C 30.18 in /  1021.9 hPa NW 7.0 mph /  11.3 km/h 16.0 mph /  25.7 km/h 87 % 0.00 in /  0 mm 0 W/m2
23:50 44.2 °F /  6.8 °C 40.6 °F /  4.8 °C 30.18 in /  1021.9 hPa WNW 6.0 mph /  9.7 km/h 6.0 mph /  9.7 km/h 87 % 0.00 in /  0 mm 0 W/m2
23:55 44.1 °F /  6.7 °C 40.5 °F /  4.7 °C 30.18 in /  1021.9 hPa WNW 5.0 mph /  8 km/h 16.0 mph /  25.7 km/h 87 % 0.00 in /  0 mm 0 W/m2
Delerius-Weather
Compliments of Weather Underground - 1.75 mb

Data updates at regular intervals.